sensor_id;sensor_type;location;lat;lon;timestamp;temperature;humidity
20680;DHT22;10499;47.494;7.608;2022-11-03T00:01:54;8.20;99.90
20680;DHT22;10499;47.494;7.608;2022-11-03T00:04:21;8.20;99.90
20680;DHT22;10499;47.494;7.608;2022-11-03T00:06:50;8.10;99.90
20680;DHT22;10499;47.494;7.608;2022-11-03T00:09:17;8.10;99.90
20680;DHT22;10499;47.494;7.608;2022-11-03T00:11:45;8.10;99.90
20680;DHT22;10499;47.494;7.608;2022-11-03T00:14:11;8.10;99.90
20680;DHT22;10499;47.494;7.608;2022-11-03T00:16:39;8.00;99.90
20680;DHT22;10499;47.494;7.608;2022-11-03T00:19:06;8.00;99.90
20680;DHT22;10499;47.494;7.608;2022-11-03T00:21:32;7.90;99.90
20680;DHT22;10499;47.494;7.608;2022-11-03T00:23:58;7.90;99.90
20680;DHT22;10499;47.494;7.608;2022-11-03T00:26:28;7.80;99.90
20680;DHT22;10499;47.494;7.608;2022-11-03T00:28:56;7.80;99.90
20680;DHT22;10499;47.494;7.608;2022-11-03T00:31:24;7.80;99.90
20680;DHT22;10499;47.494;7.608;2022-11-03T00:33:51;7.70;99.90
20680;DHT22;10499;47.494;7.608;2022-11-03T00:36:23;7.70;99.90
20680;DHT22;10499;47.494;7.608;2022-11-03T00:38:49;7.80;99.90
20680;DHT22;10499;47.494;7.608;2022-11-03T00:41:19;7.80;99.90
20680;DHT22;10499;47.494;7.608;2022-11-03T00:43:46;7.80;99.90
20680;DHT22;10499;47.494;7.608;2022-11-03T00:46:12;7.90;99.90
20680;DHT22;10499;47.494;7.608;2022-11-03T00:48:38;7.90;99.90
20680;DHT22;10499;47.494;7.608;2022-11-03T00:53:31;7.80;99.90
20680;DHT22;10499;47.494;7.608;2022-11-03T00:55:57;7.70;99.90
20680;DHT22;10499;47.494;7.608;2022-11-03T00:58:23;7.60;99.90
20680;DHT22;10499;47.494;7.608;2022-11-03T01:00:49;7.70;99.90
20680;DHT22;10499;47.494;7.608;2022-11-03T01:03:14;7.70;99.90
20680;DHT22;10499;47.494;7.608;2022-11-03T01:05:41;7.70;99.90
20680;DHT22;10499;47.494;7.608;2022-11-03T01:08:31;7.60;99.90
20680;DHT22;10499;47.494;7.608;2022-11-03T01:11:07;7.60;99.90
20680;DHT22;10499;47.494;7.608;2022-11-03T01:13:52;7.60;99.90
20680;DHT22;10499;47.494;7.608;2022-11-03T01:16:18;7.60;99.90
20680;DHT22;10499;47.494;7.608;2022-11-03T01:18:44;7.60;99.90
20680;DHT22;10499;47.494;7.608;2022-11-03T01:21:09;7.70;99.90
20680;DHT22;10499;47.494;7.608;2022-11-03T01:23:35;7.70;99.90
20680;DHT22;10499;47.494;7.608;2022-11-03T01:26:05;7.60;99.90
20680;DHT22;10499;47.494;7.608;2022-11-03T01:28:42;7.40;99.90
20680;DHT22;10499;47.494;7.608;2022-11-03T01:31:14;7.40;99.90
20680;DHT22;10499;47.494;7.608;2022-11-03T01:33:41;7.40;99.90
20680;DHT22;10499;47.494;7.608;2022-11-03T01:36:07;7.30;99.90
20680;DHT22;10499;47.494;7.608;2022-11-03T01:38:34;7.30;99.90
20680;DHT22;10499;47.494;7.608;2022-11-03T01:41:01;7.20;99.90
20680;DHT22;10499;47.494;7.608;2022-11-03T01:43:28;7.20;99.90
20680;DHT22;10499;47.494;7.608;2022-11-03T01:48:44;7.20;99.90
20680;DHT22;10499;47.494;7.608;2022-11-03T01:51:13;7.20;99.90
20680;DHT22;10499;47.494;7.608;2022-11-03T01:53:40;7.20;99.90
20680;DHT22;10499;47.494;7.608;2022-11-03T01:56:08;7.20;99.90
20680;DHT22;10499;47.494;7.608;2022-11-03T01:58:38;7.20;99.90
20680;DHT22;10499;47.494;7.608;2022-11-03T02:01:06;7.10;99.90
20680;DHT22;10499;47.494;7.608;2022-11-03T02:03:35;7.10;99.90
20680;DHT22;10499;47.494;7.608;2022-11-03T02:06:02;7.10;99.90
20680;DHT22;10499;47.494;7.608;2022-11-03T02:08:35;7.10;99.90
20680;DHT22;10499;47.494;7.608;2022-11-03T02:11:02;7.10;99.90
20680;DHT22;10499;47.494;7.608;2022-11-03T02:13:54;7.10;99.90
20680;DHT22;10499;47.494;7.608;2022-11-03T02:16:22;7.10;99.90
20680;DHT22;10499;47.494;7.608;2022-11-03T02:18:56;7.10;99.90
20680;DHT22;10499;47.494;7.608;2022-11-03T02:27:04;7.10;99.90
20680;DHT22;10499;47.494;7.608;2022-11-03T02:29:30;7.10;99.90
20680;DHT22;10499;47.494;7.608;2022-11-03T02:32:03;7.10;99.90
20680;DHT22;10499;47.494;7.608;2022-11-03T02:34:39;7.20;99.90
20680;DHT22;10499;47.494;7.608;2022-11-03T02:37:16;7.10;99.90
20680;DHT22;10499;47.494;7.608;2022-11-03T02:39:47;7.00;99.90
20680;DHT22;10499;47.494;7.608;2022-11-03T02:42:15;7.00;99.90
20680;DHT22;10499;47.494;7.608;2022-11-03T02:44:44;7.00;99.90
20680;DHT22;10499;47.494;7.608;2022-11-03T02:47:12;7.10;99.90
20680;DHT22;10499;47.494;7.608;2022-11-03T02:49:47;7.10;99.90
20680;DHT22;10499;47.494;7.608;2022-11-03T02:52:43;6.90;99.90
20680;DHT22;10499;47.494;7.608;2022-11-03T02:57:55;6.90;99.90
20680;DHT22;10499;47.494;7.608;2022-11-03T03:00:22;7.00;99.90
20680;DHT22;10499;47.494;7.608;2022-11-03T03:03:07;7.00;99.90
20680;DHT22;10499;47.494;7.608;2022-11-03T03:05:38;7.10;99.90
20680;DHT22;10499;47.494;7.608;2022-11-03T03:08:06;7.00;99.90
20680;DHT22;10499;47.494;7.608;2022-11-03T03:10:38;6.90;99.90
20680;DHT22;10499;47.494;7.608;2022-11-03T03:13:06;7.00;99.90
20680;DHT22;10499;47.494;7.608;2022-11-03T03:18:25;6.90;99.90
20680;DHT22;10499;47.494;7.608;2022-11-03T03:21:12;6.90;99.90
20680;DHT22;10499;47.494;7.608;2022-11-03T03:23:44;6.90;99.90
20680;DHT22;10499;47.494;7.608;2022-11-03T03:29:06;6.90;99.90
20680;DHT22;10499;47.494;7.608;2022-11-03T03:31:36;7.00;99.90
20680;DHT22;10499;47.494;7.608;2022-11-03T03:34:03;7.10;99.90
20680;DHT22;10499;47.494;7.608;2022-11-03T03:36:31;7.00;99.90
20680;DHT22;10499;47.494;7.608;2022-11-03T03:38:59;6.90;99.90
20680;DHT22;10499;47.494;7.608;2022-11-03T03:41:27;7.00;99.90
20680;DHT22;10499;47.494;7.608;2022-11-03T03:43:59;6.90;99.90
20680;DHT22;10499;47.494;7.608;2022-11-03T03:46:30;6.90;99.90
20680;DHT22;10499;47.494;7.608;2022-11-03T03:48:58;7.00;99.90
20680;DHT22;10499;47.494;7.608;2022-11-03T03:51:25;7.00;99.90
20680;DHT22;10499;47.494;7.608;2022-11-03T03:53:53;7.10;99.90
20680;DHT22;10499;47.494;7.608;2022-11-03T03:56:24;7.20;99.90
20680;DHT22;10499;47.494;7.608;2022-11-03T03:58:51;7.20;99.90
20680;DHT22;10499;47.494;7.608;2022-11-03T04:01:17;7.10;99.90
20680;DHT22;10499;47.494;7.608;2022-11-03T04:03:51;7.00;99.90
20680;DHT22;10499;47.494;7.608;2022-11-03T04:06:16;7.00;99.90
20680;DHT22;10499;47.494;7.608;2022-11-03T04:08:42;7.00;99.90
20680;DHT22;10499;47.494;7.608;2022-11-03T04:11:08;6.80;99.90
20680;DHT22;10499;47.494;7.608;2022-11-03T04:13:52;6.80;99.90
20680;DHT22;10499;47.494;7.608;2022-11-03T04:16:36;6.90;99.90
20680;DHT22;10499;47.494;7.608;2022-11-03T04:19:20;6.90;99.90
20680;DHT22;10499;47.494;7.608;2022-11-03T04:22:04;6.90;99.90
20680;DHT22;10499;47.494;7.608;2022-11-03T04:24:47;7.00;99.90
20680;DHT22;10499;47.494;7.608;2022-11-03T04:27:32;6.90;99.90
20680;DHT22;10499;47.494;7.608;2022-11-03T04:30:06;6.90;99.90
20680;DHT22;10499;47.494;7.608;2022-11-03T04:32:35;6.90;99.90
20680;DHT22;10499;47.494;7.608;2022-11-03T04:35:02;6.90;99.90
20680;DHT22;10499;47.494;7.608;2022-11-03T04:37:34;6.90;99.90
20680;DHT22;10499;47.494;7.608;2022-11-03T04:40:00;6.80;99.90
20680;DHT22;10499;47.494;7.608;2022-11-03T04:42:26;6.80;99.90
20680;DHT22;10499;47.494;7.608;2022-11-03T04:44:55;6.70;99.90
20680;DHT22;10499;47.494;7.608;2022-11-03T04:47:24;6.70;99.90
20680;DHT22;10499;47.494;7.608;2022-11-03T04:49:50;6.60;99.90
20680;DHT22;10499;47.494;7.608;2022-11-03T04:52:19;6.70;99.90
20680;DHT22;10499;47.494;7.608;2022-11-03T04:54:48;6.70;99.90
20680;DHT22;10499;47.494;7.608;2022-11-03T04:57:15;6.70;99.90
20680;DHT22;10499;47.494;7.608;2022-11-03T04:59:45;6.70;99.90
20680;DHT22;10499;47.494;7.608;2022-11-03T05:02:14;6.70;99.90
20680;DHT22;10499;47.494;7.608;2022-11-03T05:04:41;6.70;99.90
20680;DHT22;10499;47.494;7.608;2022-11-03T05:09:45;6.90;99.90
20680;DHT22;10499;47.494;7.608;2022-11-03T05:12:10;6.80;99.90
20680;DHT22;10499;47.494;7.608;2022-11-03T05:14:36;6.70;99.90
20680;DHT22;10499;47.494;7.608;2022-11-03T05:17:22;6.70;99.90
20680;DHT22;10499;47.494;7.608;2022-11-03T05:19:50;6.70;99.90
20680;DHT22;10499;47.494;7.608;2022-11-03T05:22:20;6.80;99.90
20680;DHT22;10499;47.494;7.608;2022-11-03T05:24:54;6.80;99.90
20680;DHT22;10499;47.494;7.608;2022-11-03T05:27:20;6.80;99.90
20680;DHT22;10499;47.494;7.608;2022-11-03T05:29:47;6.70;99.90
20680;DHT22;10499;47.494;7.608;2022-11-03T05:32:20;6.80;99.90
20680;DHT22;10499;47.494;7.608;2022-11-03T05:34:49;6.80;99.90
20680;DHT22;10499;47.494;7.608;2022-11-03T05:37:30;6.80;99.90
20680;DHT22;10499;47.494;7.608;2022-11-03T05:40:20;6.70;99.90
20680;DHT22;10499;47.494;7.608;2022-11-03T05:42:50;6.70;99.90
20680;DHT22;10499;47.494;7.608;2022-11-03T05:45:44;6.70;99.90
20680;DHT22;10499;47.494;7.608;2022-11-03T05:48:28;6.70;99.90
20680;DHT22;10499;47.494;7.608;2022-11-03T05:50:55;6.60;99.90
20680;DHT22;10499;47.494;7.608;2022-11-03T05:53:45;6.70;99.90
20680;DHT22;10499;47.494;7.608;2022-11-03T05:56:17;6.70;99.90
20680;DHT22;10499;47.494;7.608;2022-11-03T05:58:43;6.70;99.90
20680;DHT22;10499;47.494;7.608;2022-11-03T06:01:18;6.70;99.90
20680;DHT22;10499;47.494;7.608;2022-11-03T06:03:45;6.80;99.90
20680;DHT22;10499;47.494;7.608;2022-11-03T06:06:23;6.70;99.90
20680;DHT22;10499;47.494;7.608;2022-11-03T06:08:51;6.80;99.90
20680;DHT22;10499;47.494;7.608;2022-11-03T06:11:29;6.80;99.90
20680;DHT22;10499;47.494;7.608;2022-11-03T06:13:56;6.90;99.90
20680;DHT22;10499;47.494;7.608;2022-11-03T06:16:38;7.00;99.90
20680;DHT22;10499;47.494;7.608;2022-11-03T06:19:22;7.10;99.90
20680;DHT22;10499;47.494;7.608;2022-11-03T06:21:53;7.00;99.90
20680;DHT22;10499;47.494;7.608;2022-11-03T06:24:22;6.90;99.90
20680;DHT22;10499;47.494;7.608;2022-11-03T06:26:50;6.90;99.90
20680;DHT22;10499;47.494;7.608;2022-11-03T06:29:18;6.90;99.90
20680;DHT22;10499;47.494;7.608;2022-11-03T06:31:48;6.90;99.90
20680;DHT22;10499;47.494;7.608;2022-11-03T06:36:47;7.00;99.90
20680;DHT22;10499;47.494;7.608;2022-11-03T06:39:20;7.10;99.90
20680;DHT22;10499;47.494;7.608;2022-11-03T06:41:46;7.30;99.90
20680;DHT22;10499;47.494;7.608;2022-11-03T06:44:22;7.40;99.90
20680;DHT22;10499;47.494;7.608;2022-11-03T06:46:49;7.40;99.90
20680;DHT22;10499;47.494;7.608;2022-11-03T06:49:41;7.50;99.90
20680;DHT22;10499;47.494;7.608;2022-11-03T06:52:22;7.50;99.90
20680;DHT22;10499;47.494;7.608;2022-11-03T06:54:52;7.70;99.90
20680;DHT22;10499;47.494;7.608;2022-11-03T06:57:18;7.80;99.90
20680;DHT22;10499;47.494;7.608;2022-11-03T06:59:44;8.00;99.90
20680;DHT22;10499;47.494;7.608;2022-11-03T07:05:27;8.30;99.90
20680;DHT22;10499;47.494;7.608;2022-11-03T07:07:56;8.50;99.90
20680;DHT22;10499;47.494;7.608;2022-11-03T07:10:30;8.50;99.90
20680;DHT22;10499;47.494;7.608;2022-11-03T07:12:59;8.60;99.90
20680;DHT22;10499;47.494;7.608;2022-11-03T07:15:29;8.90;99.90
20680;DHT22;10499;47.494;7.608;2022-11-03T07:17:57;9.50;99.90
20680;DHT22;10499;47.494;7.608;2022-11-03T07:20:24;9.20;99.90
20680;DHT22;10499;47.494;7.608;2022-11-03T07:22:50;9.00;99.90
20680;DHT22;10499;47.494;7.608;2022-11-03T07:25:28;9.00;99.90
20680;DHT22;10499;47.494;7.608;2022-11-03T07:28:00;9.20;99.90
20680;DHT22;10499;47.494;7.608;2022-11-03T07:30:37;10.00;99.90
20680;DHT22;10499;47.494;7.608;2022-11-03T07:33:28;10.70;99.90
20680;DHT22;10499;47.494;7.608;2022-11-03T07:35:57;10.90;99.90
20680;DHT22;10499;47.494;7.608;2022-11-03T07:38:25;10.70;99.90
20680;DHT22;10499;47.494;7.608;2022-11-03T07:40:52;10.40;99.90
20680;DHT22;10499;47.494;7.608;2022-11-03T07:43:32;10.60;99.90
20680;DHT22;10499;47.494;7.608;2022-11-03T07:46:00;10.90;99.90
20680;DHT22;10499;47.494;7.608;2022-11-03T07:48:45;11.20;99.90
20680;DHT22;10499;47.494;7.608;2022-11-03T07:51:27;11.40;99.90
20680;DHT22;10499;47.494;7.608;2022-11-03T07:54:19;11.70;99.90
20680;DHT22;10499;47.494;7.608;2022-11-03T07:59:22;10.60;99.90
20680;DHT22;10499;47.494;7.608;2022-11-03T08:01:53;10.50;99.90
20680;DHT22;10499;47.494;7.608;2022-11-03T08:04:35;10.50;99.90
20680;DHT22;10499;47.494;7.608;2022-11-03T08:07:01;10.30;99.90
20680;DHT22;10499;47.494;7.608;2022-11-03T08:09:26;10.50;99.90
20680;DHT22;10499;47.494;7.608;2022-11-03T08:11:52;11.30;99.90
20680;DHT22;10499;47.494;7.608;2022-11-03T08:14:18;14.70;99.90
20680;DHT22;10499;47.494;7.608;2022-11-03T08:16:44;19.60;77.70
20680;DHT22;10499;47.494;7.608;2022-11-03T08:19:10;19.90;74.60
20680;DHT22;10499;47.494;7.608;2022-11-03T08:21:36;20.40;70.10
20680;DHT22;10499;47.494;7.608;2022-11-03T08:24:02;19.40;71.40
20680;DHT22;10499;47.494;7.608;2022-11-03T08:26:28;19.00;72.30
20680;DHT22;10499;47.494;7.608;2022-11-03T08:28:54;17.70;76.40
20680;DHT22;10499;47.494;7.608;2022-11-03T08:31:19;16.60;81.80
20680;DHT22;10499;47.494;7.608;2022-11-03T08:33:45;17.40;81.30
20680;DHT22;10499;47.494;7.608;2022-11-03T08:36:11;18.30;77.10
20680;DHT22;10499;47.494;7.608;2022-11-03T08:38:37;18.50;76.10
20680;DHT22;10499;47.494;7.608;2022-11-03T08:41:02;20.90;69.80
20680;DHT22;10499;47.494;7.608;2022-11-03T08:43:28;22.40;62.30
20680;DHT22;10499;47.494;7.608;2022-11-03T08:45:54;22.30;61.60
20680;DHT22;10499;47.494;7.608;2022-11-03T08:48:21;21.70;62.50
20680;DHT22;10499;47.494;7.608;2022-11-03T08:50:47;20.60;68.40
20680;DHT22;10499;47.494;7.608;2022-11-03T08:53:17;22.80;62.60
20680;DHT22;10499;47.494;7.608;2022-11-03T08:55:43;25.00;57.40
20680;DHT22;10499;47.494;7.608;2022-11-03T08:58:08;24.90;55.60
20680;DHT22;10499;47.494;7.608;2022-11-03T09:03:43;26.10;52.30
20680;DHT22;10499;47.494;7.608;2022-11-03T09:06:09;25.80;51.50
20680;DHT22;10499;47.494;7.608;2022-11-03T09:08:34;23.40;57.00
20680;DHT22;10499;47.494;7.608;2022-11-03T09:11:00;23.10;59.00
20680;DHT22;10499;47.494;7.608;2022-11-03T09:13:25;22.60;59.80
20680;DHT22;10499;47.494;7.608;2022-11-03T09:15:54;23.10;59.00
20680;DHT22;10499;47.494;7.608;2022-11-03T09:18:20;21.90;62.50
20680;DHT22;10499;47.494;7.608;2022-11-03T09:33:53;17.60;83.20
20680;DHT22;10499;47.494;7.608;2022-11-03T09:36:25;17.50;84.70
20680;DHT22;10499;47.494;7.608;2022-11-03T09:38:51;18.20;83.60
20680;DHT22;10499;47.494;7.608;2022-11-03T09:41:34;20.20;77.30
20680;DHT22;10499;47.494;7.608;2022-11-03T09:44:06;21.20;72.90
20680;DHT22;10499;47.494;7.608;2022-11-03T09:46:58;21.80;70.70
20680;DHT22;10499;47.494;7.608;2022-11-03T09:49:24;22.50;68.20
20680;DHT22;10499;47.494;7.608;2022-11-03T09:52:13;23.10;65.70
20680;DHT22;10499;47.494;7.608;2022-11-03T09:54:40;23.40;65.00
20680;DHT22;10499;47.494;7.608;2022-11-03T09:57:14;24.70;60.00
20680;DHT22;10499;47.494;7.608;2022-11-03T09:59:43;25.90;56.80
20680;DHT22;10499;47.494;7.608;2022-11-03T10:08:03;25.90;52.90
20680;DHT22;10499;47.494;7.608;2022-11-03T10:10:30;24.40;56.50
20680;DHT22;10499;47.494;7.608;2022-11-03T10:13:17;23.40;59.60
20680;DHT22;10499;47.494;7.608;2022-11-03T10:15:46;22.30;64.10
20680;DHT22;10499;47.494;7.608;2022-11-03T10:24:15;19.80;75.10
20680;DHT22;10499;47.494;7.608;2022-11-03T10:26:49;19.50;75.50
20680;DHT22;10499;47.494;7.608;2022-11-03T10:29:18;19.20;77.00
20680;DHT22;10499;47.494;7.608;2022-11-03T10:31:45;19.10;77.90
20680;DHT22;10499;47.494;7.608;2022-11-03T10:34:27;19.00;79.10
20680;DHT22;10499;47.494;7.608;2022-11-03T10:37:16;19.10;79.20
20680;DHT22;10499;47.494;7.608;2022-11-03T10:39:57;18.90;79.30
20680;DHT22;10499;47.494;7.608;2022-11-03T10:42:29;19.10;78.80
20680;DHT22;10499;47.494;7.608;2022-11-03T10:45:14;19.20;78.80
20680;DHT22;10499;47.494;7.608;2022-11-03T10:47:40;19.30;78.80
20680;DHT22;10499;47.494;7.608;2022-11-03T10:50:23;19.30;79.30
20680;DHT22;10499;47.494;7.608;2022-11-03T10:52:50;19.00;79.20
20680;DHT22;10499;47.494;7.608;2022-11-03T10:55:27;18.90;80.60
20680;DHT22;10499;47.494;7.608;2022-11-03T10:57:54;18.80;81.20
20680;DHT22;10499;47.494;7.608;2022-11-03T11:00:20;18.80;81.90
20680;DHT22;10499;47.494;7.608;2022-11-03T11:02:47;18.60;83.30
20680;DHT22;10499;47.494;7.608;2022-11-03T11:10:32;18.10;85.20
20680;DHT22;10499;47.494;7.608;2022-11-03T11:20:58;17.60;90.10
20680;DHT22;10499;47.494;7.608;2022-11-03T11:28:33;17.20;91.40
20680;DHT22;10499;47.494;7.608;2022-11-03T11:30:59;17.10;91.40
20680;DHT22;10499;47.494;7.608;2022-11-03T11:33:27;16.90;92.20
20680;DHT22;10499;47.494;7.608;2022-11-03T11:41:20;16.70;96.20
20680;DHT22;10499;47.494;7.608;2022-11-03T11:43:46;16.60;96.10
20680;DHT22;10499;47.494;7.608;2022-11-03T11:46:37;16.50;97.20
20680;DHT22;10499;47.494;7.608;2022-11-03T11:51:33;16.40;97.70
20680;DHT22;10499;47.494;7.608;2022-11-03T11:54:04;16.30;98.70
20680;DHT22;10499;47.494;7.608;2022-11-03T11:56:57;16.20;99.90
20680;DHT22;10499;47.494;7.608;2022-11-03T11:59:35;16.10;99.80
20680;DHT22;10499;47.494;7.608;2022-11-03T12:02:01;16.00;99.90
20680;DHT22;10499;47.494;7.608;2022-11-03T12:04:28;16.00;99.90
20680;DHT22;10499;47.494;7.608;2022-11-03T12:06:55;16.00;99.90
20680;DHT22;10499;47.494;7.608;2022-11-03T12:09:24;16.10;99.90
20680;DHT22;10499;47.494;7.608;2022-11-03T12:11:54;16.20;99.90
20680;DHT22;10499;47.494;7.608;2022-11-03T12:14:24;16.10;89.10
20680;DHT22;10499;47.494;7.608;2022-11-03T12:16:50;16.10;99.90
20680;DHT22;10499;47.494;7.608;2022-11-03T12:22:05;16.10;99.90
20680;DHT22;10499;47.494;7.608;2022-11-03T12:26:58;15.90;99.90
20680;DHT22;10499;47.494;7.608;2022-11-03T12:29:24;15.90;99.90
20680;DHT22;10499;47.494;7.608;2022-11-03T12:31:53;15.80;99.90
20680;DHT22;10499;47.494;7.608;2022-11-03T12:34:19;15.90;99.90
20680;DHT22;10499;47.494;7.608;2022-11-03T12:36:54;16.00;99.90
20680;DHT22;10499;47.494;7.608;2022-11-03T12:41:56;16.00;99.90
20680;DHT22;10499;47.494;7.608;2022-11-03T12:44:21;15.90;99.90
20680;DHT22;10499;47.494;7.608;2022-11-03T12:46:47;15.80;99.90
20680;DHT22;10499;47.494;7.608;2022-11-03T12:49:13;15.60;99.90
20680;DHT22;10499;47.494;7.608;2022-11-03T12:51:39;15.50;99.90
20680;DHT22;10499;47.494;7.608;2022-11-03T12:54:07;15.60;99.90
20680;DHT22;10499;47.494;7.608;2022-11-03T12:59:30;15.60;99.90
20680;DHT22;10499;47.494;7.608;2022-11-03T13:01:55;15.60;99.90
20680;DHT22;10499;47.494;7.608;2022-11-03T13:04:21;15.60;99.90
20680;DHT22;10499;47.494;7.608;2022-11-03T13:07:00;15.50;99.90
20680;DHT22;10499;47.494;7.608;2022-11-03T13:13:04;15.60;99.90
20680;DHT22;10499;47.494;7.608;2022-11-03T13:18:05;15.40;99.90
20680;DHT22;10499;47.494;7.608;2022-11-03T13:20:32;15.40;99.90
20680;DHT22;10499;47.494;7.608;2022-11-03T13:22:58;15.30;99.90
20680;DHT22;10499;47.494;7.608;2022-11-03T13:25:26;15.30;99.90
20680;DHT22;10499;47.494;7.608;2022-11-03T13:27:53;15.30;99.90
20680;DHT22;10499;47.494;7.608;2022-11-03T13:30:20;15.30;99.90
20680;DHT22;10499;47.494;7.608;2022-11-03T13:32:48;15.20;99.90
20680;DHT22;10499;47.494;7.608;2022-11-03T13:35:17;15.30;99.90
20680;DHT22;10499;47.494;7.608;2022-11-03T13:37:45;15.20;99.90
20680;DHT22;10499;47.494;7.608;2022-11-03T13:40:42;15.10;99.90
20680;DHT22;10499;47.494;7.608;2022-11-03T13:43:13;15.00;99.90
20680;DHT22;10499;47.494;7.608;2022-11-03T13:45:39;15.10;99.90
20680;DHT22;10499;47.494;7.608;2022-11-03T13:48:05;15.20;99.90
20680;DHT22;10499;47.494;7.608;2022-11-03T13:50:30;15.10;99.90
20680;DHT22;10499;47.494;7.608;2022-11-03T13:52:56;15.00;99.90
20680;DHT22;10499;47.494;7.608;2022-11-03T13:55:22;15.00;99.90
20680;DHT22;10499;47.494;7.608;2022-11-03T13:57:47;14.90;99.90
20680;DHT22;10499;47.494;7.608;2022-11-03T14:00:13;14.80;99.90
20680;DHT22;10499;47.494;7.608;2022-11-03T14:02:44;14.90;99.90
20680;DHT22;10499;47.494;7.608;2022-11-03T14:05:10;15.00;99.90
20680;DHT22;10499;47.494;7.608;2022-11-03T14:07:38;14.90;99.90
20680;DHT22;10499;47.494;7.608;2022-11-03T14:10:04;14.90;99.90
20680;DHT22;10499;47.494;7.608;2022-11-03T14:12:30;14.90;99.90
20680;DHT22;10499;47.494;7.608;2022-11-03T14:15:09;14.80;99.90
20680;DHT22;10499;47.494;7.608;2022-11-03T14:17:35;14.80;99.90
20680;DHT22;10499;47.494;7.608;2022-11-03T14:20:02;14.80;99.90
20680;DHT22;10499;47.494;7.608;2022-11-03T14:22:28;14.80;99.90
20680;DHT22;10499;47.494;7.608;2022-11-03T14:24:54;14.50;99.90
20680;DHT22;10499;47.494;7.608;2022-11-03T14:27:20;14.50;99.90
20680;DHT22;10499;47.494;7.608;2022-11-03T14:29:46;14.50;99.90
20680;DHT22;10499;47.494;7.608;2022-11-03T14:32:15;14.50;99.90
20680;DHT22;10499;47.494;7.608;2022-11-03T14:38:03;14.50;99.90
20680;DHT22;10499;47.494;7.608;2022-11-03T14:40:28;14.50;99.90
20680;DHT22;10499;47.494;7.608;2022-11-03T14:43:12;14.50;99.90
20680;DHT22;10499;47.494;7.608;2022-11-03T14:45:38;14.40;99.90
20680;DHT22;10499;47.494;7.608;2022-11-03T14:48:04;14.40;99.90
20680;DHT22;10499;47.494;7.608;2022-11-03T14:50:29;14.40;99.90
20680;DHT22;10499;47.494;7.608;2022-11-03T14:52:55;14.40;99.90
20680;DHT22;10499;47.494;7.608;2022-11-03T14:55:20;14.30;99.90
20680;DHT22;10499;47.494;7.608;2022-11-03T14:57:46;14.30;99.90
20680;DHT22;10499;47.494;7.608;2022-11-03T15:00:12;14.20;99.90
20680;DHT22;10499;47.494;7.608;2022-11-03T15:02:37;14.20;99.90
20680;DHT22;10499;47.494;7.608;2022-11-03T15:05:03;14.20;99.90
20680;DHT22;10499;47.494;7.608;2022-11-03T15:10:47;14.10;99.90
20680;DHT22;10499;47.494;7.608;2022-11-03T15:13:13;14.10;99.90
20680;DHT22;10499;47.494;7.608;2022-11-03T15:15:39;14.10;99.90
20680;DHT22;10499;47.494;7.608;2022-11-03T15:18:32;14.20;99.90
20680;DHT22;10499;47.494;7.608;2022-11-03T15:27:27;13.80;99.90
20680;DHT22;10499;47.494;7.608;2022-11-03T15:30:21;13.80;99.90
20680;DHT22;10499;47.494;7.608;2022-11-03T15:35:22;13.80;99.90
20680;DHT22;10499;47.494;7.608;2022-11-03T15:37:48;13.80;99.90
20680;DHT22;10499;47.494;7.608;2022-11-03T15:40:15;13.60;99.90
20680;DHT22;10499;47.494;7.608;2022-11-03T15:42:44;13.70;99.90
20680;DHT22;10499;47.494;7.608;2022-11-03T15:57:19;13.40;99.90
20680;DHT22;10499;47.494;7.608;2022-11-03T15:59:45;13.40;99.90
20680;DHT22;10499;47.494;7.608;2022-11-03T16:02:11;13.40;99.90
20680;DHT22;10499;47.494;7.608;2022-11-03T16:04:43;13.30;99.90
20680;DHT22;10499;47.494;7.608;2022-11-03T16:07:09;13.30;99.90
20680;DHT22;10499;47.494;7.608;2022-11-03T16:09:34;13.10;99.90
20680;DHT22;10499;47.494;7.608;2022-11-03T16:12:00;13.00;99.90
20680;DHT22;10499;47.494;7.608;2022-11-03T16:14:26;13.00;99.90
20680;DHT22;10499;47.494;7.608;2022-11-03T16:16:51;13.00;99.90
20680;DHT22;10499;47.494;7.608;2022-11-03T16:19:17;13.10;99.90
20680;DHT22;10499;47.494;7.608;2022-11-03T16:21:42;13.20;99.90
20680;DHT22;10499;47.494;7.608;2022-11-03T16:24:08;13.70;99.90
20680;DHT22;10499;47.494;7.608;2022-11-03T16:26:39;14.40;99.90
20680;DHT22;10499;47.494;7.608;2022-11-03T16:29:05;14.80;96.20
20680;DHT22;10499;47.494;7.608;2022-11-03T16:31:30;15.00;97.20
20680;DHT22;10499;47.494;7.608;2022-11-03T16:33:56;15.10;96.90
20680;DHT22;10499;47.494;7.608;2022-11-03T16:36:23;15.10;97.50
20680;DHT22;10499;47.494;7.608;2022-11-03T16:38:49;15.10;95.50
20680;DHT22;10499;47.494;7.608;2022-11-03T16:41:17;15.20;94.20
20680;DHT22;10499;47.494;7.608;2022-11-03T16:43:43;15.30;93.30
20680;DHT22;10499;47.494;7.608;2022-11-03T16:46:08;15.30;94.60
20680;DHT22;10499;47.494;7.608;2022-11-03T16:48:34;15.00;96.30
20680;DHT22;10499;47.494;7.608;2022-11-03T16:50:59;14.90;99.30
20680;DHT22;10499;47.494;7.608;2022-11-03T16:53:25;14.70;99.90
20680;DHT22;10499;47.494;7.608;2022-11-03T16:55:51;14.60;99.90
20680;DHT22;10499;47.494;7.608;2022-11-03T16:58:17;14.60;99.90
20680;DHT22;10499;47.494;7.608;2022-11-03T17:00:51;13.90;99.90
20680;DHT22;10499;47.494;7.608;2022-11-03T17:06:26;11.70;99.90
20680;DHT22;10499;47.494;7.608;2022-11-03T17:09:11;11.30;99.90
20680;DHT22;10499;47.494;7.608;2022-11-03T17:11:38;11.40;99.90
20680;DHT22;10499;47.494;7.608;2022-11-03T17:14:10;11.30;99.90
20680;DHT22;10499;47.494;7.608;2022-11-03T17:16:39;11.30;99.90
20680;DHT22;10499;47.494;7.608;2022-11-03T17:19:47;11.50;99.90
20680;DHT22;10499;47.494;7.608;2022-11-03T17:22:13;11.40;99.90
20680;DHT22;10499;47.494;7.608;2022-11-03T17:24:39;11.50;99.90
20680;DHT22;10499;47.494;7.608;2022-11-03T17:29:39;11.60;99.90
20680;DHT22;10499;47.494;7.608;2022-11-03T17:32:10;11.80;99.90
20680;DHT22;10499;47.494;7.608;2022-11-03T17:34:38;11.70;99.90
20680;DHT22;10499;47.494;7.608;2022-11-03T17:37:05;11.60;99.90
20680;DHT22;10499;47.494;7.608;2022-11-03T17:39:32;11.70;99.90
20680;DHT22;10499;47.494;7.608;2022-11-03T17:42:23;11.80;99.90
20680;DHT22;10499;47.494;7.608;2022-11-03T17:44:54;11.90;99.90
20680;DHT22;10499;47.494;7.608;2022-11-03T17:47:20;12.00;99.90
20680;DHT22;10499;47.494;7.608;2022-11-03T17:49:46;11.80;99.90
20680;DHT22;10499;47.494;7.608;2022-11-03T17:52:16;11.80;99.90
20680;DHT22;10499;47.494;7.608;2022-11-03T17:54:43;11.90;99.90
20680;DHT22;10499;47.494;7.608;2022-11-03T17:57:20;11.90;99.90
20680;DHT22;10499;47.494;7.608;2022-11-03T17:59:48;12.00;99.90
20680;DHT22;10499;47.494;7.608;2022-11-03T18:02:17;12.00;99.90
20680;DHT22;10499;47.494;7.608;2022-11-03T18:04:44;12.00;99.90
20680;DHT22;10499;47.494;7.608;2022-11-03T18:07:18;12.00;99.90
20680;DHT22;10499;47.494;7.608;2022-11-03T18:09:46;11.90;99.90
20680;DHT22;10499;47.494;7.608;2022-11-03T18:12:13;12.00;99.90